Skip Navigation LinksHome page > Weather > Current weather Skip Navigation Links

Current Weather

New Tokyo International (Narita), Tokyo

For information only: do not use for flight planning or navigation.
Latest weather
Observation time Friday, March 23, 2018 4:00 PM JST
Local time Friday, March 23, 2018 4:17 PM JST
Flight conditions Visual Meteorological Conditions
Wind direction East (90°)
Winds variable from 50° to 120°
Wind speed 14 mph
Visibility 6.2 mi.
Sky condition
Ceiling 8,000 ft. broken clouds
Cloud layer few clouds 3,000 ft.
Cloud layer scattered clouds 5,000 ft.
Cloud layer broken clouds 8,000 ft.
Temperature 55°F
Dewpoint 41°F
Altimeter 29.88 in.Hg
Derived measurements
Relative humidity 58%
Density altitude 77 ft.
No significant changes expected in the next two hours.
METAR RJAA 230700Z 09012KT 050V120 9999 FEW030 SCT050 BKN080 13/05 Q1012 NOSIG RMK 2CU030 4SC050 6AC080 A2991


Location code

InnerDrive.Weather 4.0.6615.0 Release CLR 4.0.30319.42000
Copyright ©2018 Inner Drive Technology. All rights reserved. Portions Copyright ©1986-2018 David Braverman.

Find weather

Site navigation

Skip Navigation Links

Place info

Page info

PayPal - The safer, easier way to pay online!

Return home.

Copyright ©2018 Inner Drive Technology. Purveyors of fine, hand-crafted computer software. Page printed 2018-03-23T07:17:24 UTC.